Time;durP1;ratioP1;P1;durP2;ratioP2;P2;SDS_P1;SDS_P2;PMS_P1;PMS_P2;Temp;Humidity;BMP_temperature;BMP_pressure;BME280_temperature;BME280_humidity;BME280_pressure;Samples;Min_cycle;Max_cycle;Signal;HPM_P1;HPM_P2
2023/09/16 00:02:07;;;;;;;4.50;4.10;;;15.30;67.30;;;;;;6024245;29;20239;-79
2023/09/16 00:05:12;;;;;;;4.20;4.10;;;15.30;67.50;;;;;;6013357;29;20298;-80
2023/09/16 00:08:15;;;;;;;4.50;4.13;;;15.20;67.50;;;;;;6011513;29;20237;-79
2023/09/16 00:11:19;;;;;;;4.00;3.77;;;15.30;67.20;;;;;;6010522;29;20258;-82
2023/09/16 00:14:23;;;;;;;4.17;3.87;;;15.30;67.20;;;;;;6011644;29;20279;-83
2023/09/16 00:17:28;;;;;;;5.73;3.90;;;15.20;67.40;;;;;;6008890;29;20790;-83
2023/09/16 00:20:31;;;;;;;5.73;4.17;;;15.10;67.60;;;;;;6008053;29;20243;-85
2023/09/16 00:23:34;;;;;;;4.23;4.00;;;15.10;67.80;;;;;;6018421;29;20321;-83
2023/09/16 00:26:37;;;;;;;5.60;4.67;;;15.00;67.90;;;;;;6017004;29;20244;-81
2023/09/16 00:29:40;;;;;;;4.33;4.10;;;15.00;67.70;;;;;;6027409;29;20252;-81
2023/09/16 00:32:45;;;;;;;4.30;4.10;;;15.00;67.90;;;;;;6026027;29;20244;-77
2023/09/16 00:35:48;;;;;;;4.47;4.23;;;14.90;67.90;;;;;;6013028;29;20245;-81
2023/09/16 00:38:51;;;;;;;5.13;4.83;;;14.90;68.00;;;;;;6008656;29;20253;-80
2023/09/16 00:41:55;;;;;;;4.40;4.00;;;14.80;67.90;;;;;;6019578;29;20247;-80
2023/09/16 00:44:58;;;;;;;4.17;3.97;;;14.90;68.00;;;;;;6019935;29;20249;-81
2023/09/16 00:48:03;;;;;;;4.60;4.37;;;14.80;67.90;;;;;;6014974;29;20245;-82
2023/09/16 00:51:07;;;;;;;4.53;4.23;;;14.80;68.00;;;;;;6011821;29;20309;-81
2023/09/16 00:54:11;;;;;;;4.47;4.07;;;14.70;68.00;;;;;;6004578;29;20260;-82
2023/09/16 00:57:15;;;;;;;4.53;4.20;;;14.70;68.10;;;;;;6000075;29;20288;-77
2023/09/16 01:00:19;;;;;;;4.03;3.73;;;14.70;67.90;;;;;;6008614;29;20347;-83
2023/09/16 01:03:25;;;;;;;4.27;4.07;;;14.70;68.00;;;;;;6016935;29;20254;-82
2023/09/16 01:06:30;;;;;;;4.37;4.17;;;14.60;68.00;;;;;;6003272;29;20731;-81
2023/09/16 01:09:33;;;;;;;4.50;4.20;;;14.60;68.20;;;;;;6004079;29;20337;-84
2023/09/16 01:12:37;;;;;;;5.03;4.63;;;14.60;68.10;;;;;;6023788;29;20237;-83
2023/09/16 01:15:45;;;;;;;5.00;4.60;;;14.50;68.20;;;;;;6012199;29;20248;-79
2023/09/16 01:18:55;;;;;;;5.00;4.47;;;14.50;68.30;;;;;;6011390;29;20260;-83
2023/09/16 01:21:59;;;;;;;4.43;4.23;;;14.50;68.20;;;;;;6024153;29;20241;-81
2023/09/16 01:25:06;;;;;;;6.70;4.43;;;14.50;68.20;;;;;;6009462;29;20831;-82
2023/09/16 01:28:09;;;;;;;4.80;4.50;;;14.40;68.20;;;;;;6011135;29;20975;-83
2023/09/16 01:31:13;;;;;;;4.07;3.87;;;14.40;68.40;;;;;;6008477;29;20241;-82
2023/09/16 01:34:25;;;;;;;5.60;4.53;;;14.40;68.20;;;;;;6022618;29;20636;-82
2023/09/16 01:37:30;;;;;;;4.93;4.43;;;14.30;68.30;;;;;;6010582;29;20814;-84
2023/09/16 01:40:37;;;;;;;3.97;3.77;;;14.30;68.40;;;;;;6008473;29;20248;-83
2023/09/16 01:43:40;;;;;;;4.57;4.37;;;14.30;68.60;;;;;;6012190;29;20289;-82
2023/09/16 01:46:44;;;;;;;4.30;4.10;;;14.20;68.20;;;;;;6023620;29;20252;-81
2023/09/16 01:49:47;;;;;;;4.93;4.40;;;14.20;68.30;;;;;;6004469;29;20261;-81
2023/09/16 01:52:50;;;;;;;4.27;4.07;;;14.20;68.60;;;;;;6011705;29;20457;-81
2023/09/16 01:55:57;;;;;;;4.63;4.20;;;14.10;68.60;;;;;;6002920;29;20241;-79
2023/09/16 01:59:00;;;;;;;4.70;4.40;;;14.10;68.40;;;;;;6010737;29;20256;-82
2023/09/16 02:02:04;;;;;;;4.47;4.27;;;14.10;68.40;;;;;;6011665;29;20244;-81
2023/09/16 02:05:09;;;;;;;4.07;3.97;;;14.00;68.60;;;;;;6011246;29;20264;-82
2023/09/16 02:08:12;;;;;;;4.13;3.83;;;14.00;68.60;;;;;;6018932;29;20249;-84
2023/09/16 02:11:16;;;;;;;4.47;4.20;;;14.00;68.40;;;;;;6015435;29;20329;-83
2023/09/16 02:14:20;;;;;;;4.33;4.10;;;14.00;68.30;;;;;;6005248;29;20244;-80
2023/09/16 02:17:23;;;;;;;4.30;4.00;;;14.00;68.40;;;;;;6020989;29;20346;-82
2023/09/16 02:20:28;;;;;;;4.90;4.20;;;14.00;68.30;;;;;;6017698;29;20237;-81
2023/09/16 02:23:31;;;;;;;4.57;4.10;;;14.00;68.20;;;;;;6005959;29;20233;-83
2023/09/16 02:26:36;;;;;;;5.03;4.40;;;13.90;68.20;;;;;;6010435;29;20249;-83
2023/09/16 02:29:39;;;;;;;4.77;4.37;;;13.90;68.30;;;;;;6008631;29;20256;-84
2023/09/16 02:32:42;;;;;;;4.10;4.00;;;13.90;68.20;;;;;;6019188;29;20253;-81
2023/09/16 02:35:45;;;;;;;4.57;4.20;;;13.90;68.20;;;;;;6015591;29;20247;-83
2023/09/16 02:38:48;;;;;;;3.93;3.63;;;13.90;68.20;;;;;;6005122;29;20325;-82
2023/09/16 02:41:53;;;;;;;4.83;4.53;;;13.90;68.20;;;;;;6010138;29;20257;-82
2023/09/16 02:44:58;;;;;;;4.30;4.10;;;13.80;68.40;;;;;;5990393;29;20244;-80
2023/09/16 02:48:01;;;;;;;4.57;4.17;;;13.80;68.30;;;;;;6016781;29;20247;-83
2023/09/16 02:51:09;;;;;;;4.10;3.80;;;13.70;68.20;;;;;;6002321;29;20933;-80
2023/09/16 02:54:12;;;;;;;4.27;3.97;;;13.70;68.00;;;;;;6011547;29;20385;-82
2023/09/16 02:57:17;;;;;;;4.73;4.43;;;13.70;68.20;;;;;;6015631;29;20340;-80
2023/09/16 03:00:20;;;;;;;4.40;4.20;;;13.70;68.30;;;;;;6011589;29;20321;-83
2023/09/16 03:03:23;;;;;;;5.03;4.63;;;13.60;68.40;;;;;;6006779;29;20237;-83
2023/09/16 03:06:27;;;;;;;5.20;4.80;;;13.60;68.30;;;;;;6016252;29;20248;-83
2023/09/16 03:09:30;;;;;;;5.30;4.67;;;13.60;68.30;;;;;;6008954;29;20302;-83
2023/09/16 03:12:34;;;;;;;4.50;4.30;;;13.60;68.70;;;;;;6010991;29;20241;-80
2023/09/16 03:15:48;;;;;;;5.77;4.77;;;13.50;68.70;;;;;;6016513;29;20253;-83
2023/09/16 03:18:53;;;;;;;5.13;4.83;;;13.50;68.50;;;;;;6009449;29;20244;-84
2023/09/16 03:21:57;;;;;;;4.77;4.47;;;13.50;68.50;;;;;;6011327;29;20739;-79
2023/09/16 03:25:01;;;;;;;6.13;4.30;;;13.50;68.50;;;;;;6001402;29;20328;-81
2023/09/16 03:28:06;;;;;;;4.83;4.43;;;13.50;68.50;;;;;;6013604;29;20255;-82
2023/09/16 03:31:09;;;;;;;6.30;4.53;;;13.50;68.60;;;;;;6008484;29;20244;-77
2023/09/16 03:34:12;;;;;;;4.90;4.50;;;13.50;68.60;;;;;;6009566;29;20315;-82
2023/09/16 03:37:16;;;;;;;4.93;4.63;;;13.50;68.60;;;;;;6017788;29;20248;-81
2023/09/16 03:40:19;;;;;;;4.40;4.20;;;13.40;68.50;;;;;;6011523;29;20328;-82
2023/09/16 03:43:23;;;;;;;4.87;4.57;;;13.40;68.60;;;;;;6013768;29;20526;-84
2023/09/16 03:46:26;;;;;;;5.40;4.87;;;13.50;68.90;;;;;;6011705;29;20237;-82
2023/09/16 03:49:29;;;;;;;4.30;4.00;;;13.40;68.60;;;;;;6011411;29;20245;-82
2023/09/16 03:52:33;;;;;;;5.13;4.83;;;13.30;68.70;;;;;;6017771;29;20256;-79
2023/09/16 03:55:36;;;;;;;4.70;4.50;;;13.30;68.70;;;;;;6006857;29;20240;-83
2023/09/16 03:58:41;;;;;;;5.10;4.80;;;13.30;68.90;;;;;;6007953;29;20324;-83
2023/09/16 04:01:44;;;;;;;4.60;4.40;;;13.30;68.80;;;;;;6008701;29;20252;-82
2023/09/16 04:04:47;;;;;;;4.77;4.43;;;13.30;68.70;;;;;;6007754;29;20244;-83
2023/09/16 04:07:51;;;;;;;5.87;4.70;;;13.30;68.70;;;;;;6013174;29;20335;-79
2023/09/16 04:10:54;;;;;;;5.47;4.93;;;13.30;68.60;;;;;;6012211;29;20252;-82
2023/09/16 04:13:59;;;;;;;4.90;4.60;;;13.20;68.60;;;;;;6009822;29;20260;-80
2023/09/16 04:17:04;;;;;;;5.67;4.80;;;13.10;68.80;;;;;;6013205;29;20261;-79
2023/09/16 04:20:09;;;;;;;5.30;4.90;;;13.10;68.60;;;;;;6012872;29;20241;-80
2023/09/16 04:23:13;;;;;;;5.43;5.03;;;13.10;68.70;;;;;;6004273;29;20240;-82
2023/09/16 04:26:16;;;;;;;4.63;4.40;;;13.10;68.90;;;;;;6013826;29;20401;-83
2023/09/16 04:29:20;;;;;;;5.53;4.93;;;13.10;69.00;;;;;;6009816;29;20240;-81
2023/09/16 04:32:23;;;;;;;4.73;4.53;;;13.00;69.20;;;;;;6007170;29;20290;-83
2023/09/16 04:35:27;;;;;;;4.70;4.50;;;13.00;69.00;;;;;;6018909;29;20337;-81
2023/09/16 04:38:30;;;;;;;5.00;4.63;;;13.00;69.00;;;;;;6012300;29;20241;-83
2023/09/16 04:41:33;;;;;;;4.90;4.70;;;13.00;69.20;;;;;;6018760;29;20248;-82
2023/09/16 04:44:39;;;;;;;4.83;4.63;;;13.00;69.30;;;;;;6007321;29;20292;-81
2023/09/16 04:47:43;;;;;;;4.83;4.33;;;12.90;69.50;;;;;;6011202;29;20860;-84
2023/09/16 04:50:47;;;;;;;5.10;4.73;;;12.90;69.50;;;;;;6012036;29;20241;-80
2023/09/16 04:53:51;;;;;;;5.20;4.83;;;12.90;69.60;;;;;;6017498;29;20310;-83
2023/09/16 04:56:55;;;;;;;5.10;4.80;;;12.90;69.70;;;;;;6014840;29;20248;-84
2023/09/16 05:00:00;;;;;;;5.03;4.70;;;12.90;69.60;;;;;;6010151;29;20249;-81
2023/09/16 05:03:04;;;;;;;5.53;4.77;;;12.90;69.40;;;;;;6001688;29;20249;-82
2023/09/16 05:06:07;;;;;;;5.17;4.77;;;12.90;69.60;;;;;;6010526;29;20252;-82
2023/09/16 05:09:10;;;;;;;9.33;5.13;;;13.00;69.50;;;;;;6012624;29;20280;-82
2023/09/16 05:12:14;;;;;;;5.50;5.20;;;13.00;69.50;;;;;;6006938;29;20678;-79
2023/09/16 05:15:18;;;;;;;5.13;4.83;;;13.00;69.40;;;;;;6025063;29;20249;-81
2023/09/16 05:18:21;;;;;;;5.20;4.77;;;13.00;69.60;;;;;;6008304;29;20245;-81
2023/09/16 05:21:24;;;;;;;7.60;4.93;;;13.00;69.70;;;;;;6020791;29;20249;-82
2023/09/16 05:24:31;;;;;;;7.23;5.00;;;13.00;69.40;;;;;;6019059;29;20268;-80
2023/09/16 05:27:34;;;;;;;6.13;5.20;;;13.00;69.30;;;;;;6026864;29;20253;-81
2023/09/16 05:30:39;;;;;;;5.60;5.07;;;13.00;69.20;;;;;;6024494;29;20328;-81
2023/09/16 05:33:42;;;;;;;4.70;4.37;;;13.00;69.50;;;;;;6016405;29;20238;-79
2023/09/16 05:36:46;;;;;;;7.17;5.07;;;13.00;69.50;;;;;;6024555;29;20259;-80
2023/09/16 05:39:51;;;;;;;5.83;5.27;;;13.00;69.40;;;;;;6017387;29;20253;-80
2023/09/16 05:42:54;;;;;;;5.57;5.00;;;13.10;69.30;;;;;;6021463;29;20245;-81
2023/09/16 05:46:01;;;;;;;5.80;5.27;;;13.10;69.20;;;;;;6024113;29;20248;-79
2023/09/16 05:49:07;;;;;;;5.67;5.27;;;13.10;69.20;;;;;;6025436;29;20241;-81
2023/09/16 05:52:11;;;;;;;7.90;5.53;;;13.20;69.20;;;;;;6019836;29;20238;-79
2023/09/16 05:55:14;;;;;;;5.70;5.30;;;13.20;69.10;;;;;;6024409;29;20237;-81
2023/09/16 05:58:18;;;;;;;5.80;5.20;;;13.20;69.20;;;;;;6018105;29;20259;-81
2023/09/16 06:01:22;;;;;;;6.27;5.67;;;13.30;69.20;;;;;;6024409;29;20237;-81
2023/09/16 06:04:26;;;;;;;5.70;5.17;;;13.30;69.00;;;;;;6017734;29;20241;-80
2023/09/16 06:07:29;;;;;;;6.30;5.70;;;13.40;68.80;;;;;;6008196;29;20244;-79
2023/09/16 06:10:32;;;;;;;6.10;5.70;;;13.50;68.70;;;;;;6011628;29;20253;-80
2023/09/16 06:13:35;;;;;;;5.37;4.97;;;13.50;68.70;;;;;;6027889;29;20245;-78
2023/09/16 06:16:40;;;;;;;5.83;5.43;;;13.50;68.40;;;;;;6017750;29;20254;-81
2023/09/16 06:19:43;;;;;;;5.93;5.40;;;13.60;68.50;;;;;;6012185;29;20241;-82
2023/09/16 06:22:46;;;;;;;5.90;5.40;;;13.80;68.10;;;;;;6025681;29;20636;-81
2023/09/16 06:25:49;;;;;;;5.97;5.47;;;13.90;68.40;;;;;;6012620;29;20240;-82
2023/09/16 06:28:52;;;;;;;6.17;5.20;;;13.90;67.90;;;;;;6019358;29;20248;-80
2023/09/16 06:31:57;;;;;;;6.07;5.60;;;13.90;67.80;;;;;;6019308;29;20280;-81
2023/09/16 06:35:02;;;;;;;6.20;5.63;;;13.90;67.80;;;;;;6018210;29;20245;-81
2023/09/16 06:38:06;;;;;;;6.40;5.90;;;13.90;68.00;;;;;;6024443;29;20241;-79
2023/09/16 06:41:09;;;;;;;10.40;5.83;;;14.00;67.90;;;;;;6018313;29;20329;-80
2023/09/16 06:44:12;;;;;;;6.23;5.60;;;14.10;68.00;;;;;;6003680;29;20709;-80
2023/09/16 06:47:19;;;;;;;8.90;5.83;;;14.10;67.90;;;;;;6013733;29;20248;-82
2023/09/16 06:50:22;;;;;;;5.80;5.30;;;14.20;68.00;;;;;;6017932;29;20233;-80
2023/09/16 06:53:25;;;;;;;5.83;5.40;;;14.40;67.80;;;;;;6014408;29;20233;-79
2023/09/16 06:56:29;;;;;;;6.17;5.57;;;14.50;67.70;;;;;;6009159;29;20805;-80
2023/09/16 06:59:32;;;;;;;5.53;5.20;;;14.50;67.60;;;;;;6010206;29;20249;-81
2023/09/16 07:02:37;;;;;;;6.60;5.90;;;14.60;67.50;;;;;;6010966;29;20315;-81
2023/09/16 07:05:45;;;;;;;5.70;5.20;;;14.80;67.10;;;;;;6011705;29;20422;-80
2023/09/16 07:08:48;;;;;;;6.10;5.53;;;14.90;67.00;;;;;;6008993;29;20242;-81
2023/09/16 07:11:52;;;;;;;5.47;5.07;;;15.00;66.80;;;;;;6011418;29;20241;-81
2023/09/16 07:14:55;;;;;;;5.40;5.00;;;15.20;66.70;;;;;;6003922;29;20674;-80
2023/09/16 07:17:59;;;;;;;7.97;6.10;;;15.70;65.90;;;;;;6006029;29;20249;-81
2023/09/16 07:21:02;;;;;;;5.53;5.03;;;16.00;65.00;;;;;;6004176;29;20324;-78
2023/09/16 07:24:07;;;;;;;4.73;4.43;;;16.10;64.50;;;;;;6019708;29;20331;-79
2023/09/16 07:27:10;;;;;;;9.13;5.30;;;16.00;65.00;;;;;;6001042;29;20275;-77
2023/09/16 07:30:14;;;;;;;6.17;5.57;;;16.00;65.50;;;;;;6008213;29;20272;-81
2023/09/16 07:33:20;;;;;;;5.30;4.83;;;16.10;65.00;;;;;;6007311;29;20233;-80
2023/09/16 07:36:23;;;;;;;5.67;5.27;;;16.10;65.10;;;;;;6010820;29;20252;-80
2023/09/16 07:39:28;;;;;;;5.90;5.43;;;16.10;65.30;;;;;;6011806;29;20593;-80
2023/09/16 07:42:32;;;;;;;5.57;4.60;;;16.20;65.20;;;;;;6008038;29;20244;-81
2023/09/16 07:45:35;;;;;;;6.77;6.17;;;16.40;65.30;;;;;;6018134;29;20245;-76
2023/09/16 07:48:39;;;;;;;7.63;5.50;;;16.40;65.00;;;;;;6008453;29;20241;-81
2023/09/16 07:51:45;;;;;;;6.10;5.60;;;16.40;65.00;;;;;;6013250;29;20751;-78
2023/09/16 07:54:49;;;;;;;5.20;4.80;;;16.50;64.90;;;;;;6010258;29;20241;-79
2023/09/16 07:57:52;;;;;;;5.43;5.03;;;16.50;65.10;;;;;;6012354;29;20745;-79
2023/09/16 08:00:55;;;;;;;5.10;4.80;;;16.60;65.00;;;;;;6005563;29;20249;-81
2023/09/16 08:04:00;;;;;;;8.73;5.67;;;16.70;65.00;;;;;;6003422;29;20248;-77
2023/09/16 08:07:04;;;;;;;5.13;4.80;;;16.80;64.60;;;;;;6006849;29;20777;-81
2023/09/16 08:10:08;;;;;;;5.43;5.03;;;16.90;64.70;;;;;;6002905;29;20245;-80
2023/09/16 08:13:11;;;;;;;5.33;4.73;;;17.00;64.70;;;;;;6011645;29;20304;-81
2023/09/16 08:16:14;;;;;;;5.03;4.70;;;17.20;64.50;;;;;;6002752;29;20241;-78
2023/09/16 08:19:19;;;;;;;5.07;4.70;;;17.40;63.70;;;;;;6018535;29;20285;-81
2023/09/16 08:22:22;;;;;;;4.93;4.63;;;17.50;63.20;;;;;;6002833;29;20244;-79
2023/09/16 08:25:26;;;;;;;6.83;5.03;;;17.50;63.20;;;;;;6003425;29;20605;-78
2023/09/16 08:28:30;;;;;;;5.80;4.93;;;17.60;63.30;;;;;;6015410;29;20323;-80
2023/09/16 08:31:33;;;;;;;4.93;4.53;;;17.80;62.80;;;;;;6007141;29;20266;-82
2023/09/16 08:34:40;;;;;;;5.13;4.73;;;17.90;62.70;;;;;;6011068;29;20951;-80
2023/09/16 08:37:43;;;;;;;6.40;4.70;;;18.10;63.20;;;;;;6010920;29;20253;-80
2023/09/16 08:40:51;;;;;;;5.30;4.83;;;18.10;62.20;;;;;;6004588;29;20240;-79
2023/09/16 08:43:59;;;;;;;5.83;5.37;;;18.30;62.50;;;;;;6011190;29;20255;-77
2023/09/16 08:47:09;;;;;;;4.93;4.57;;;18.40;61.90;;;;;;6014065;29;20358;-79
2023/09/16 08:50:16;;;;;;;5.00;4.67;;;18.60;62.10;;;;;;6008919;29;20242;-78
2023/09/16 08:53:20;;;;;;;5.03;4.60;;;18.70;61.30;;;;;;6012800;29;20406;-79
2023/09/16 08:56:23;;;;;;;4.83;4.53;;;18.70;61.90;;;;;;6018723;29;20328;-80
2023/09/16 08:59:27;;;;;;;5.27;4.80;;;18.70;62.10;;;;;;6014534;29;20324;-80
2023/09/16 09:02:31;;;;;;;6.40;5.97;;;18.70;61.80;;;;;;6015413;29;20245;-79
2023/09/16 09:05:37;;;;;;;5.97;5.47;;;18.90;61.70;;;;;;6018264;29;20240;-79
2023/09/16 09:08:40;;;;;;;5.37;5.00;;;19.10;60.80;;;;;;6016214;29;20953;-77
2023/09/16 09:11:44;;;;;;;9.63;5.50;;;19.30;60.70;;;;;;6011193;29;20278;-80
2023/09/16 09:14:49;;;;;;;4.87;4.47;;;19.50;60.20;;;;;;6005959;29;20244;-76
2023/09/16 09:17:58;;;;;;;4.40;4.20;;;19.70;59.70;;;;;;6019624;29;20328;-79
2023/09/16 09:21:04;;;;;;;5.33;4.90;;;19.80;60.10;;;;;;6002914;29;20237;-79
2023/09/16 09:24:08;;;;;;;4.87;4.47;;;20.00;59.00;;;;;;6015796;29;20237;-80
2023/09/16 09:27:11;;;;;;;4.67;4.23;;;20.10;59.20;;;;;;6009538;29;20240;-80
2023/09/16 09:30:15;;;;;;;4.70;4.30;;;20.30;58.60;;;;;;6010845;29;20244;-80
2023/09/16 09:33:21;;;;;;;4.80;4.43;;;20.40;58.60;;;;;;6012797;29;20236;-78
2023/09/16 09:36:27;;;;;;;5.30;5.00;;;20.50;58.80;;;;;;6018613;29;20248;-79
2023/09/16 09:39:31;;;;;;;5.63;4.77;;;20.70;57.40;;;;;;6014008;29;20754;-80
2023/09/16 09:42:39;;;;;;;4.53;4.23;;;20.80;57.90;;;;;;6021183;29;20252;-79
2023/09/16 09:45:45;;;;;;;4.90;4.60;;;20.80;57.50;;;;;;6010218;29;20882;-78
2023/09/16 09:48:48;;;;;;;4.40;4.17;;;20.70;57.60;;;;;;6014671;29;20249;-82
2023/09/16 09:51:53;;;;;;;4.90;4.47;;;20.60;58.10;;;;;;6008435;29;20235;-76
2023/09/16 09:54:58;;;;;;;4.20;3.90;;;20.60;58.20;;;;;;6008935;29;20454;-79
2023/09/16 09:58:03;;;;;;;4.70;4.40;;;20.70;58.70;;;;;;6011681;29;20241;-79
2023/09/16 10:01:08;;;;;;;4.97;4.60;;;20.90;58.30;;;;;;6014636;29;20237;-78
2023/09/16 10:04:12;;;;;;;4.50;4.30;;;21.00;58.40;;;;;;6015880;29;20241;-81
2023/09/16 10:07:17;;;;;;;5.10;4.70;;;21.10;58.30;;;;;;6008926;29;20233;-79
2023/09/16 10:10:23;;;;;;;4.57;4.23;;;21.40;57.00;;;;;;6015887;29;20236;-78
2023/09/16 10:13:26;;;;;;;6.73;4.73;;;21.50;57.00;;;;;;6003952;29;20236;-76
2023/09/16 10:16:30;;;;;;;4.57;4.27;;;21.70;57.50;;;;;;6026323;29;20240;-76
2023/09/16 10:19:34;;;;;;;3.87;3.77;;;21.90;56.70;;;;;;6016382;29;20328;-80
2023/09/16 10:22:42;;;;;;;5.23;4.73;;;22.10;56.40;;;;;;6016692;29;20392;-81
2023/09/16 10:25:45;;;;;;;5.10;4.70;;;22.30;56.20;;;;;;6015725;29;20385;-81
2023/09/16 10:28:52;;;;;;;4.33;4.13;;;22.50;55.50;;;;;;6011096;29;20774;-75
2023/09/16 10:31:55;;;;;;;5.70;4.53;;;22.60;54.90;;;;;;6011391;29;20256;-80
2023/09/16 10:35:01;;;;;;;4.87;4.47;;;22.60;54.70;;;;;;6017550;29;20244;-78
2023/09/16 10:38:07;;;;;;;4.07;3.87;;;22.80;54.40;;;;;;6007212;29;20378;-80
2023/09/16 10:41:11;;;;;;;5.03;4.50;;;23.00;54.50;;;;;;6014703;29;20237;-77
2023/09/16 10:44:17;;;;;;;4.37;4.27;;;23.30;54.00;;;;;;6006976;29;20325;-79
2023/09/16 10:47:21;;;;;;;5.07;4.83;;;23.40;53.60;;;;;;6013002;29;20777;-78
2023/09/16 10:50:25;;;;;;;5.03;4.63;;;23.50;53.10;;;;;;6014269;29;20336;-80
2023/09/16 10:53:36;;;;;;;4.90;4.60;;;23.50;53.50;;;;;;6013946;29;20286;-79
2023/09/16 10:56:44;;;;;;;5.10;4.80;;;23.60;54.40;;;;;;6008146;29;20324;-78
2023/09/16 10:59:52;;;;;;;5.20;4.80;;;23.80;53.30;;;;;;6005607;29;20332;-78
2023/09/16 11:02:59;;;;;;;5.10;4.60;;;23.80;53.40;;;;;;6014517;29;20884;-79
2023/09/16 11:06:02;;;;;;;5.87;4.87;;;23.90;53.00;;;;;;6009653;29;20676;-79
2023/09/16 11:09:07;;;;;;;4.80;4.60;;;23.90;53.00;;;;;;6013313;29;20329;-78
2023/09/16 11:12:11;;;;;;;5.23;4.93;;;24.00;53.50;;;;;;6011214;29;20760;-81
2023/09/16 11:15:16;;;;;;;5.50;5.07;;;24.10;53.30;;;;;;6018142;29;20718;-79
2023/09/16 11:18:21;;;;;;;5.50;5.17;;;24.00;53.70;;;;;;6014134;29;20341;-81
2023/09/16 11:21:25;;;;;;;6.13;5.40;;;24.00;53.00;;;;;;6014487;29;20240;-79
2023/09/16 11:24:30;;;;;;;4.73;4.50;;;24.00;53.00;;;;;;6009271;29;20340;-80
2023/09/16 11:27:33;;;;;;;5.20;4.90;;;24.00;53.50;;;;;;6007022;29;20795;-80
2023/09/16 11:30:37;;;;;;;5.27;5.07;;;24.00;53.50;;;;;;6013206;29;20256;-77
2023/09/16 11:33:40;;;;;;;5.60;5.23;;;24.20;53.20;;;;;;6011680;29;20248;-79
2023/09/16 11:36:44;;;;;;;5.60;5.20;;;24.20;53.10;;;;;;6011488;29;20271;-78
2023/09/16 11:39:54;;;;;;;5.03;4.77;;;24.20;53.30;;;;;;6005927;29;20294;-77
2023/09/16 11:42:58;;;;;;;5.30;4.80;;;24.30;52.80;;;;;;6015194;29;20260;-81
2023/09/16 11:46:02;;;;;;;5.23;4.93;;;24.50;53.40;;;;;;6007013;29;20290;-81
2023/09/16 11:49:05;;;;;;;5.80;5.50;;;24.40;52.30;;;;;;6012937;29;20248;-79
2023/09/16 11:52:09;;;;;;;5.37;4.93;;;24.40;52.20;;;;;;6011867;29;20252;-78
2023/09/16 11:55:14;;;;;;;6.43;5.00;;;24.40;52.80;;;;;;6012942;29;20714;-81
2023/09/16 11:58:18;;;;;;;5.17;4.87;;;24.50;52.30;;;;;;6008811;29;20312;-80
2023/09/16 12:01:22;;;;;;;5.40;5.00;;;24.50;52.50;;;;;;6013196;29;20252;-80
2023/09/16 12:04:27;;;;;;;5.40;5.00;;;24.60;52.20;;;;;;6004269;29;20320;-81
2023/09/16 12:07:31;;;;;;;5.43;5.03;;;24.80;52.00;;;;;;6013999;29;20237;-81
2023/09/16 12:10:37;;;;;;;5.60;5.20;;;24.80;52.00;;;;;;6018412;29;20749;-79
2023/09/16 12:13:40;;;;;;;5.30;5.10;;;24.90;51.90;;;;;;6008877;29;20245;-80
2023/09/16 12:16:43;;;;;;;4.80;4.60;;;25.00;52.20;;;;;;6010755;29;20246;-81
2023/09/16 12:19:51;;;;;;;5.10;4.77;;;25.00;52.30;;;;;;6004228;29;20355;-79
2023/09/16 12:22:54;;;;;;;5.40;5.10;;;25.10;52.00;;;;;;6016138;29;20331;-81
2023/09/16 12:25:58;;;;;;;5.23;5.03;;;25.10;51.90;;;;;;6002332;29;20241;-82
2023/09/16 12:29:03;;;;;;;5.53;5.23;;;25.00;51.80;;;;;;6011638;29;20260;-79
2023/09/16 12:32:10;;;;;;;5.63;5.23;;;25.00;51.90;;;;;;6014404;29;20260;-78
2023/09/16 12:35:13;;;;;;;5.43;5.13;;;24.90;52.30;;;;;;6005835;29;20237;-80
2023/09/16 12:38:16;;;;;;;5.07;4.67;;;25.00;51.90;;;;;;6004395;29;20249;-79
2023/09/16 12:41:22;;;;;;;5.37;5.10;;;25.00;51.60;;;;;;6010577;29;20240;-75
2023/09/16 12:44:26;;;;;;;5.40;4.90;;;25.20;51.90;;;;;;6011826;29;20233;-81
2023/09/16 12:47:29;;;;;;;5.67;5.23;;;25.20;51.90;;;;;;6011984;29;20265;-81
2023/09/16 12:50:33;;;;;;;5.60;5.20;;;25.10;51.50;;;;;;6010624;29;20279;-80
2023/09/16 12:53:36;;;;;;;5.40;5.20;;;25.10;52.00;;;;;;6003012;29;20378;-83
2023/09/16 12:56:48;;;;;;;5.60;5.30;;;25.20;51.60;;;;;;6009153;29;20847;-81
2023/09/16 12:59:59;;;;;;;5.67;5.37;;;25.30;51.60;;;;;;6004850;29;20382;-80
2023/09/16 13:03:02;;;;;;;5.27;4.97;;;25.30;51.60;;;;;;6010248;29;20316;-81
2023/09/16 13:06:06;;;;;;;5.40;5.10;;;25.50;51.50;;;;;;6003985;29;20241;-82
2023/09/16 13:09:11;;;;;;;4.37;4.27;;;25.50;51.00;;;;;;6012266;29;20253;-78
2023/09/16 13:12:16;;;;;;;5.73;5.43;;;25.50;51.40;;;;;;6005743;29;20745;-82
2023/09/16 13:15:23;;;;;;;5.20;4.90;;;25.60;51.70;;;;;;6009921;29;20241;-83
2023/09/16 13:18:26;;;;;;;5.10;4.93;;;25.50;51.50;;;;;;6004721;29;20261;-82
2023/09/16 13:21:31;;;;;;;5.73;5.43;;;25.50;51.20;;;;;;6013991;29;20598;-82
2023/09/16 13:24:43;;;;;;;5.80;5.30;;;25.60;51.50;;;;;;6009160;29;20761;-82
2023/09/16 13:27:49;;;;;;;5.70;5.40;;;25.80;51.90;;;;;;6013827;29;20246;-80
2023/09/16 13:30:54;;;;;;;4.90;4.80;;;25.80;51.20;;;;;;6009333;29;20252;-84
2023/09/16 13:34:00;;;;;;;5.07;4.87;;;25.90;51.50;;;;;;6017388;29;20237;-81
2023/09/16 13:37:04;;;;;;;5.80;5.50;;;25.90;51.40;;;;;;6012923;29;20290;-83
2023/09/16 13:40:12;;;;;;;5.50;5.20;;;26.00;50.90;;;;;;6007416;29;20242;-81
2023/09/16 13:43:18;;;;;;;5.47;5.17;;;26.00;50.80;;;;;;6020078;29;20247;-80
2023/09/16 13:46:21;;;;;;;5.67;5.40;;;26.00;51.60;;;;;;6013859;29;20241;-82
2023/09/16 13:49:24;;;;;;;4.97;4.73;;;26.00;51.90;;;;;;6019021;29;20757;-83
2023/09/16 13:52:27;;;;;;;5.77;5.23;;;25.80;51.20;;;;;;6017004;29;20233;-80
2023/09/16 13:55:31;;;;;;;4.73;4.53;;;25.80;51.00;;;;;;6016219;29;20643;-81
2023/09/16 13:58:36;;;;;;;4.93;4.83;;;26.00;52.00;;;;;;6008461;29;20322;-81
2023/09/16 14:01:39;;;;;;;4.90;4.70;;;26.00;51.90;;;;;;6013058;29;20252;-82
2023/09/16 14:04:42;;;;;;;4.87;4.57;;;26.00;51.20;;;;;;6013917;29;20272;-82
2023/09/16 14:07:45;;;;;;;5.20;5.00;;;26.00;50.70;;;;;;6016286;29;20886;-80
2023/09/16 14:10:48;;;;;;;4.83;4.53;;;25.90;51.00;;;;;;6005501;29;20634;-81
2023/09/16 14:13:54;;;;;;;5.33;5.03;;;25.80;51.80;;;;;;6011328;29;20238;-79
2023/09/16 14:16:58;;;;;;;5.80;5.50;;;25.80;51.30;;;;;;6025022;29;20252;-81
2023/09/16 14:20:03;;;;;;;4.87;4.67;;;25.60;51.40;;;;;;6020413;29;20319;-81
2023/09/16 14:23:07;;;;;;;5.23;4.93;;;25.50;51.70;;;;;;6003546;29;20626;-80
2023/09/16 14:26:10;;;;;;;5.33;4.83;;;25.50;51.50;;;;;;6025342;29;20320;-82
2023/09/16 14:29:15;;;;;;;4.70;4.50;;;25.60;52.30;;;;;;6013680;29;20743;-81
2023/09/16 14:32:18;;;;;;;5.47;5.17;;;25.80;51.90;;;;;;6008906;29;20548;-80
2023/09/16 14:35:21;;;;;;;5.50;5.20;;;26.00;51.00;;;;;;6017168;29;20730;-78
2023/09/16 14:38:25;;;;;;;5.37;4.97;;;26.00;51.40;;;;;;6012146;29;20245;-78
2023/09/16 14:41:28;;;;;;;5.47;5.17;;;26.00;50.70;;;;;;6023216;29;20328;-79
2023/09/16 14:44:34;;;;;;;4.87;4.67;;;26.20;51.10;;;;;;6003306;29;20730;-77
2023/09/16 14:47:37;;;;;;;4.77;4.67;;;26.40;50.80;;;;;;6007394;29;20329;-79
2023/09/16 14:50:40;;;;;;;4.57;4.37;;;26.30;50.40;;;;;;6010659;29;20244;-78
2023/09/16 14:53:44;;;;;;;6.07;5.73;;;26.40;51.10;;;;;;6010328;29;20292;-79
2023/09/16 14:56:47;;;;;;;5.07;4.77;;;26.20;50.50;;;;;;6020668;29;20359;-78
2023/09/16 14:59:52;;;;;;;4.93;4.50;;;26.00;50.70;;;;;;6011066;29;20328;-77
2023/09/16 15:02:55;;;;;;;5.10;4.90;;;26.00;51.20;;;;;;6008057;29;20641;-78
2023/09/16 15:05:58;;;;;;;5.73;5.40;;;26.00;51.30;;;;;;6014066;29;20247;-76
2023/09/16 15:09:02;;;;;;;5.20;4.97;;;26.00;51.30;;;;;;6015103;29;20239;-77
2023/09/16 15:12:06;;;;;;;6.17;5.80;;;25.90;51.00;;;;;;6015838;29;20321;-76
2023/09/16 15:15:12;;;;;;;5.60;5.30;;;25.80;51.80;;;;;;6007144;29;20241;-77
2023/09/16 15:18:15;;;;;;;5.27;5.13;;;25.80;51.90;;;;;;6018155;29;20256;-76
2023/09/16 15:21:18;;;;;;;4.80;4.60;;;25.80;51.90;;;;;;6008991;29;20238;-80
2023/09/16 15:24:21;;;;;;;5.20;5.00;;;25.60;51.90;;;;;;6011642;29;20313;-78
2023/09/16 15:27:24;;;;;;;4.83;4.53;;;25.60;51.90;;;;;;6013708;29;20327;-76
2023/09/16 15:30:29;;;;;;;5.10;4.83;;;25.60;51.70;;;;;;6005607;29;20660;-78
2023/09/16 15:33:32;;;;;;;5.50;5.20;;;25.60;51.80;;;;;;6017853;29;20248;-79
2023/09/16 15:36:36;;;;;;;5.43;5.13;;;25.40;52.60;;;;;;6019030;29;20248;-78
2023/09/16 15:39:39;;;;;;;5.30;5.10;;;25.20;52.00;;;;;;6014166;29;20241;-78
2023/09/16 15:42:45;;;;;;;4.87;4.63;;;25.20;51.90;;;;;;6005191;29;20241;-77
2023/09/16 15:45:57;;;;;;;5.27;5.07;;;25.10;52.30;;;;;;6011610;29;20253;-78
2023/09/16 15:49:00;;;;;;;4.93;4.73;;;25.00;53.00;;;;;;6009664;29;20312;-76
2023/09/16 15:52:04;;;;;;;5.50;5.30;;;24.80;54.40;;;;;;6012736;29;20242;-76
2023/09/16 15:55:08;;;;;;;5.10;4.80;;;24.60;54.10;;;;;;6007291;29;20259;-76
2023/09/16 15:58:12;;;;;;;5.10;4.87;;;24.50;53.90;;;;;;6011767;29;20240;-79
2023/09/16 16:01:21;;;;;;;6.07;5.50;;;24.40;54.30;;;;;;6006757;29;20345;-79